createdAt,value
2018-12-11T00:00:03.059Z,1.30
2018-12-11T00:02:30.549Z,0.90
2018-12-11T00:04:58.023Z,1.20
2018-12-11T00:07:25.696Z,1.27
2018-12-11T00:09:53.185Z,1.10
2018-12-11T00:12:21.090Z,1.30
2018-12-11T00:14:48.560Z,0.77
2018-12-11T00:17:16.107Z,1.33
2018-12-11T00:19:43.568Z,1.10
2018-12-11T00:22:11.201Z,1.40
2018-12-11T00:24:38.670Z,1.37
2018-12-11T00:27:06.196Z,1.50
2018-12-11T00:29:33.674Z,1.60
2018-12-11T00:32:01.151Z,1.50
2018-12-11T00:34:28.676Z,1.37
2018-12-11T00:36:57.402Z,1.20
2018-12-11T00:39:24.862Z,1.40
2018-12-11T00:41:52.324Z,1.60
2018-12-11T00:44:19.808Z,1.60
2018-12-11T00:46:47.274Z,1.23
2018-12-11T00:49:14.760Z,1.60
2018-12-11T00:51:42.599Z,1.63
2018-12-11T00:54:10.067Z,1.40
2018-12-11T00:56:37.534Z,1.47
2018-12-11T00:59:05.064Z,1.57
2018-12-11T01:01:32.540Z,1.30
2018-12-11T01:04:00.022Z,1.63
2018-12-11T01:06:29.637Z,1.87
2018-12-11T01:08:57.219Z,1.50
2018-12-11T01:11:24.682Z,1.37
2018-12-11T01:13:52.160Z,1.20
2018-12-11T01:16:19.613Z,1.10
2018-12-11T01:18:47.088Z,0.90
2018-12-11T01:21:14.578Z,1.33
2018-12-11T01:23:42.782Z,1.50
2018-12-11T01:26:10.273Z,1.50
2018-12-11T01:28:37.931Z,1.60
2018-12-11T01:31:05.428Z,1.33
2018-12-11T01:33:32.880Z,1.17
2018-12-11T01:36:00.346Z,1.43
2018-12-11T01:38:27.926Z,1.40
2018-12-11T01:40:55.401Z,1.23
2018-12-11T01:43:22.865Z,1.23
2018-12-11T01:45:50.418Z,0.90
2018-12-11T01:48:17.889Z,1.10
2018-12-11T01:50:45.376Z,1.23
2018-12-11T01:53:12.841Z,1.10
2018-12-11T01:55:40.341Z,0.83
2018-12-11T01:58:07.886Z,0.83
2018-12-11T02:00:35.434Z,1.13
2018-12-11T02:03:02.915Z,1.37
2018-12-11T02:05:30.459Z,0.90
2018-12-11T02:07:57.930Z,1.40
2018-12-11T02:10:25.402Z,1.67
2018-12-11T02:12:52.894Z,1.33
2018-12-11T02:15:20.370Z,1.00
2018-12-11T02:17:47.836Z,1.00
2018-12-11T02:20:15.309Z,1.10
2018-12-11T02:22:42.776Z,1.37
2018-12-11T02:25:10.317Z,1.67
2018-12-11T02:27:37.825Z,1.00
2018-12-11T02:30:06.018Z,0.90
2018-12-11T02:32:34.232Z,1.10
2018-12-11T02:35:01.720Z,1.07
2018-12-11T02:37:29.194Z,1.30
2018-12-11T02:39:56.671Z,1.40
2018-12-11T02:42:24.201Z,1.20
2018-12-11T02:44:51.681Z,1.37
2018-12-11T02:47:19.149Z,1.20
2018-12-11T02:49:46.620Z,1.40
2018-12-11T02:52:14.108Z,1.50
2018-12-11T02:54:41.577Z,1.60
2018-12-11T02:57:09.172Z,1.30
2018-12-11T02:59:36.640Z,1.13
2018-12-11T03:02:04.338Z,1.73
2018-12-11T03:04:31.815Z,1.40
2018-12-11T03:06:59.308Z,1.40
2018-12-11T03:09:27.508Z,1.30
2018-12-11T03:11:55.003Z,1.40
2018-12-11T03:14:22.459Z,1.40
2018-12-11T03:16:49.932Z,1.10
2018-12-11T03:19:17.419Z,1.43
2018-12-11T03:21:44.897Z,2.03
2018-12-11T03:24:12.869Z,1.47
2018-12-11T03:26:40.475Z,1.30
2018-12-11T03:29:07.972Z,1.73
2018-12-11T03:31:35.447Z,1.37
2018-12-11T03:34:03.024Z,1.60
2018-12-11T03:36:30.501Z,1.73
2018-12-11T03:38:57.983Z,1.50
2018-12-11T03:41:25.449Z,1.50
2018-12-11T03:43:52.921Z,1.60
2018-12-11T03:46:20.517Z,1.40
2018-12-11T03:48:47.996Z,1.60
2018-12-11T03:51:15.466Z,1.33
2018-12-11T03:53:42.959Z,1.57
2018-12-11T03:56:10.434Z,2.30
2018-12-11T03:58:37.930Z,2.00
2018-12-11T04:01:05.468Z,1.60
2018-12-11T04:03:33.016Z,1.83
2018-12-11T04:06:00.479Z,1.80
2018-12-11T04:08:27.953Z,1.80
2018-12-11T04:10:55.434Z,2.00
2018-12-11T04:13:22.913Z,8.93
2018-12-11T04:15:50.376Z,1.80
2018-12-11T04:18:17.857Z,1.87
2018-12-11T04:20:45.325Z,2.33
2018-12-11T04:23:12.845Z,2.00
2018-12-11T04:25:41.044Z,2.20
2018-12-11T04:28:08.605Z,2.83
2018-12-11T04:30:36.072Z,2.13
2018-12-11T04:33:03.533Z,2.20
2018-12-11T04:35:31.024Z,2.10
2018-12-11T04:37:58.539Z,2.00
2018-12-11T04:40:26.023Z,1.90
2018-12-11T04:42:53.483Z,2.57
2018-12-11T04:45:20.970Z,2.53
2018-12-11T04:47:48.430Z,1.70
2018-12-11T04:50:15.908Z,1.70
2018-12-11T04:52:43.376Z,1.33
2018-12-11T04:55:11.033Z,2.00
2018-12-11T04:57:38.492Z,1.80
2018-12-11T05:00:06.253Z,1.70
2018-12-11T05:02:33.770Z,1.60
2018-12-11T05:05:01.264Z,2.07
2018-12-11T05:07:29.910Z,1.70
2018-12-11T05:09:57.392Z,1.73
2018-12-11T05:12:24.859Z,2.00
2018-12-11T05:14:52.338Z,2.33
2018-12-11T05:17:20.627Z,2.27
2018-12-11T05:19:48.132Z,2.43
2018-12-11T05:22:15.599Z,2.30
2018-12-11T05:24:43.074Z,2.33
2018-12-11T05:27:10.550Z,2.27
2018-12-11T05:29:38.035Z,2.10
2018-12-11T05:32:05.555Z,2.00
2018-12-11T05:34:33.029Z,2.47
2018-12-11T05:37:00.762Z,1.80
2018-12-11T05:39:28.244Z,2.03
2018-12-11T05:41:55.715Z,2.23
2018-12-11T05:44:23.201Z,2.23
2018-12-11T05:46:50.679Z,2.33
2018-12-11T05:49:18.148Z,1.90
2018-12-11T05:51:45.620Z,2.10
2018-12-11T05:54:13.067Z,2.27
2018-12-11T05:56:40.556Z,2.50
2018-12-11T05:59:08.032Z,1.97
2018-12-11T06:01:35.497Z,2.27
2018-12-11T06:04:03.102Z,2.73
2018-12-11T06:06:30.585Z,1.73
2018-12-11T06:08:58.048Z,2.00
2018-12-11T06:11:25.552Z,2.10
2018-12-11T06:13:53.072Z,2.17
2018-12-11T06:16:20.992Z,1.50
2018-12-11T06:18:48.519Z,2.10
2018-12-11T06:21:16.000Z,2.17
2018-12-11T06:23:43.469Z,2.70
2018-12-11T06:26:10.991Z,1.73
2018-12-11T06:28:38.469Z,2.20
2018-12-11T06:31:05.948Z,1.93
2018-12-11T06:33:33.409Z,2.17
2018-12-11T06:36:00.884Z,2.10
2018-12-11T06:38:28.798Z,2.10
2018-12-11T06:40:56.268Z,2.30
2018-12-11T06:43:23.740Z,2.70
2018-12-11T06:45:51.216Z,2.43
2018-12-11T06:48:18.683Z,2.47
2018-12-11T06:50:46.172Z,2.30
2018-12-11T06:53:13.646Z,2.30
2018-12-11T06:55:41.122Z,2.30
2018-12-11T06:58:08.589Z,2.13
2018-12-11T07:00:36.086Z,2.63
2018-12-11T07:03:03.604Z,2.07
2018-12-11T07:05:31.148Z,1.97
2018-12-11T07:07:58.618Z,2.17
2018-12-11T07:10:26.098Z,1.50
2018-12-11T07:12:53.567Z,2.07
2018-12-11T07:15:21.040Z,1.47
2018-12-11T07:17:48.531Z,2.27
2018-12-11T07:20:16.004Z,1.93
2018-12-11T07:22:43.476Z,1.93
2018-12-11T07:25:10.954Z,1.70
2018-12-11T07:27:38.424Z,2.20
2018-12-11T07:30:07.414Z,1.80
2018-12-11T07:32:34.910Z,2.03
2018-12-11T07:35:02.396Z,1.97
2018-12-11T07:37:29.874Z,2.10
2018-12-11T07:39:57.332Z,2.20
2018-12-11T07:42:24.807Z,2.20
2018-12-11T07:44:52.273Z,2.30
2018-12-11T07:47:19.854Z,2.10
2018-12-11T07:49:47.609Z,2.50
2018-12-11T07:52:15.102Z,2.20
2018-12-11T07:54:42.570Z,1.97
2018-12-11T07:57:10.982Z,2.60
2018-12-11T07:59:39.170Z,2.20
2018-12-11T08:02:06.658Z,2.30
2018-12-11T08:04:34.140Z,1.67
2018-12-11T08:07:01.620Z,1.90
2018-12-11T08:09:29.094Z,1.73
2018-12-11T08:11:56.582Z,1.83
2018-12-11T08:14:24.050Z,1.90
2018-12-11T08:16:51.524Z,2.00
2018-12-11T08:19:19.090Z,2.47
2018-12-11T08:21:46.576Z,2.07
2018-12-11T08:24:14.860Z,2.70
2018-12-11T08:26:42.344Z,3.13
2018-12-11T08:29:09.847Z,2.63
2018-12-11T08:31:37.348Z,2.47
2018-12-11T08:34:04.809Z,2.50
2018-12-11T08:36:32.305Z,1.90
2018-12-11T08:38:59.786Z,2.03
2018-12-11T08:41:27.258Z,1.93
2018-12-11T08:43:54.717Z,1.70
2018-12-11T08:46:22.284Z,2.23
2018-12-11T08:48:49.810Z,2.17
2018-12-11T08:51:17.296Z,1.83
2018-12-11T08:53:44.790Z,2.10
2018-12-11T08:56:12.274Z,2.10
2018-12-11T08:58:39.747Z,2.40
2018-12-11T09:01:07.641Z,2.57
2018-12-11T09:03:35.105Z,2.47
2018-12-11T09:06:02.588Z,2.20
2018-12-11T09:08:30.072Z,2.40
2018-12-11T09:10:57.545Z,2.03
2018-12-11T09:13:25.028Z,3.00
2018-12-11T09:15:52.483Z,2.20
2018-12-11T09:18:19.976Z,2.37
2018-12-11T09:20:47.445Z,2.37
2018-12-11T09:23:14.934Z,1.93
2018-12-11T09:25:42.409Z,2.10
2018-12-11T09:28:11.184Z,2.63
2018-12-11T09:30:39.128Z,2.13
2018-12-11T09:33:06.613Z,2.20
2018-12-11T09:35:34.086Z,2.23
2018-12-11T09:38:01.580Z,2.57
2018-12-11T09:40:29.076Z,2.07
2018-12-11T09:42:57.384Z,2.60
2018-12-11T09:45:24.850Z,1.90
2018-12-11T09:47:52.312Z,1.73
2018-12-11T09:50:19.854Z,2.50
2018-12-11T09:52:47.330Z,3.30
2018-12-11T09:55:14.796Z,2.47
2018-12-11T09:57:42.274Z,1.70
2018-12-11T10:00:09.808Z,2.20
2018-12-11T10:02:37.294Z,1.90
2018-12-11T10:05:04.914Z,2.20
2018-12-11T10:07:32.597Z,2.10
2018-12-11T10:10:00.083Z,2.17
2018-12-11T10:12:27.558Z,2.57
2018-12-11T10:14:55.055Z,2.03
2018-12-11T10:17:22.527Z,2.13
2018-12-11T10:19:50.015Z,2.43
2018-12-11T10:22:18.344Z,2.53
2018-12-11T10:24:45.845Z,2.27
2018-12-11T10:27:13.330Z,2.20
2018-12-11T10:29:40.837Z,2.73
2018-12-11T10:32:08.322Z,2.33
2018-12-11T10:34:35.800Z,2.10
2018-12-11T10:37:03.314Z,2.07
2018-12-11T10:39:30.803Z,2.73
2018-12-11T10:41:59.402Z,2.30
2018-12-11T10:44:27.317Z,3.07
2018-12-11T10:46:54.779Z,3.00
2018-12-11T10:49:22.265Z,2.87
2018-12-11T10:51:49.799Z,2.43
2018-12-11T10:54:17.277Z,2.50
2018-12-11T10:56:44.839Z,2.67
2018-12-11T10:59:12.313Z,2.90
2018-12-11T11:01:41.741Z,2.70
2018-12-11T11:04:10.325Z,2.93
2018-12-11T11:06:37.812Z,3.30
2018-12-11T11:09:06.518Z,3.07
2018-12-11T11:11:33.986Z,3.10
2018-12-11T11:14:01.477Z,2.80
2018-12-11T11:16:28.960Z,2.90
2018-12-11T11:18:56.434Z,2.87
2018-12-11T11:21:23.918Z,3.40
2018-12-11T11:23:51.390Z,2.80
2018-12-11T11:26:18.857Z,3.40
2018-12-11T11:28:46.336Z,2.40
2018-12-11T11:31:13.802Z,2.47
2018-12-11T11:33:41.278Z,2.20
2018-12-11T11:36:08.790Z,2.97
2018-12-11T11:38:36.271Z,2.80
2018-12-11T11:41:03.909Z,3.00
2018-12-11T11:43:31.390Z,2.97
2018-12-11T11:45:58.870Z,2.87
2018-12-11T11:48:26.356Z,3.43
2018-12-11T11:50:53.817Z,3.10
2018-12-11T11:53:21.310Z,3.77
2018-12-11T11:55:48.790Z,3.20
2018-12-11T11:58:16.282Z,3.27
2018-12-11T12:00:43.877Z,3.33
2018-12-11T12:03:11.367Z,3.37
2018-12-11T12:05:38.858Z,3.47
2018-12-11T12:08:06.337Z,3.70
2018-12-11T12:10:33.869Z,3.60
2018-12-11T12:15:52.040Z,3.40
2018-12-11T12:18:19.519Z,3.00
2018-12-11T12:20:47.006Z,3.67
2018-12-11T12:23:14.487Z,3.70
2018-12-11T12:25:41.975Z,3.93
2018-12-11T12:28:09.433Z,3.80
2018-12-11T12:30:37.462Z,3.87
2018-12-11T12:33:04.922Z,3.40
2018-12-11T12:35:32.380Z,3.70
2018-12-11T12:37:59.881Z,3.60
2018-12-11T12:40:27.362Z,3.17
2018-12-11T12:42:54.846Z,3.07
2018-12-11T12:45:22.306Z,3.50
2018-12-11T12:47:49.796Z,3.57
2018-12-11T12:50:17.286Z,2.50
2018-12-11T12:52:44.780Z,2.63
2018-12-11T12:55:12.250Z,2.87
2018-12-11T12:57:39.739Z,2.03
2018-12-11T13:00:08.795Z,2.23
2018-12-11T13:02:36.267Z,2.40
2018-12-11T13:05:04.564Z,2.83
2018-12-11T13:07:33.226Z,2.27
2018-12-11T13:10:00.698Z,2.33
2018-12-11T13:12:28.254Z,2.70
2018-12-11T13:14:55.743Z,2.37
2018-12-11T13:17:23.228Z,2.30
2018-12-11T13:19:50.782Z,2.37
2018-12-11T13:22:18.262Z,2.60
2018-12-11T13:24:45.738Z,2.47
2018-12-11T13:27:13.222Z,3.03
2018-12-11T13:29:40.709Z,2.33
2018-12-11T13:32:08.184Z,2.50
2018-12-11T13:34:35.649Z,2.73
2018-12-11T13:37:03.250Z,2.47
2018-12-11T13:39:30.739Z,2.60
2018-12-11T13:41:58.259Z,2.83
2018-12-11T13:44:25.881Z,3.00
2018-12-11T13:46:53.926Z,2.87
2018-12-11T13:49:21.410Z,3.00
2018-12-11T13:51:48.886Z,2.97
2018-12-11T13:54:16.372Z,2.30
2018-12-11T13:56:43.855Z,2.40
2018-12-11T13:59:11.326Z,3.13
2018-12-11T14:01:38.815Z,2.43
2018-12-11T14:04:06.305Z,2.43
2018-12-11T14:06:33.778Z,2.23
2018-12-11T14:09:03.210Z,1.70
2018-12-11T14:11:30.688Z,2.03
2018-12-11T14:13:58.151Z,2.70
2018-12-11T14:16:25.624Z,2.00
2018-12-11T14:18:53.116Z,2.07
2018-12-11T14:21:20.690Z,2.10
2018-12-11T14:23:48.156Z,2.30
2018-12-11T14:26:15.634Z,2.67
2018-12-11T14:28:43.180Z,2.07
2018-12-11T14:31:10.669Z,2.33
2018-12-11T14:33:38.252Z,1.97
2018-12-11T14:36:05.763Z,1.87
2018-12-11T14:38:33.475Z,2.10
2018-12-11T14:41:00.942Z,2.17
2018-12-11T14:43:28.428Z,1.90
2018-12-11T14:45:55.893Z,2.13
2018-12-11T14:48:23.451Z,1.70
2018-12-11T14:50:50.913Z,2.03
2018-12-11T14:53:18.389Z,1.50
2018-12-11T14:55:45.864Z,2.20
2018-12-11T14:58:13.349Z,2.20
2018-12-11T15:00:40.827Z,2.00
2018-12-11T15:03:08.362Z,2.20
2018-12-11T15:05:35.890Z,2.13
2018-12-11T15:08:03.533Z,1.90
2018-12-11T15:10:31.078Z,1.73
2018-12-11T15:12:58.540Z,1.70
2018-12-11T15:15:26.018Z,1.30
2018-12-11T15:17:53.493Z,1.40
2018-12-11T15:20:21.040Z,1.50
2018-12-11T15:22:48.502Z,1.50
2018-12-11T15:25:15.978Z,1.20
2018-12-11T15:27:43.455Z,1.57
2018-12-11T15:30:10.931Z,1.10
2018-12-11T15:32:38.406Z,1.80
2018-12-11T15:35:05.913Z,1.40
2018-12-11T15:37:33.391Z,1.10
2018-12-11T15:40:00.882Z,1.53
2018-12-11T15:42:28.346Z,1.87
2018-12-11T15:44:55.833Z,1.57
2018-12-11T15:47:24.016Z,1.07
2018-12-11T15:49:51.490Z,1.50
2018-12-11T15:52:18.959Z,1.30
2018-12-11T15:54:46.439Z,1.60
2018-12-11T15:57:13.958Z,1.50
2018-12-11T15:59:41.450Z,1.30
2018-12-11T16:02:08.976Z,1.30
2018-12-11T16:04:36.455Z,1.93
2018-12-11T16:07:03.930Z,1.33
2018-12-11T16:09:36.514Z,1.37
2018-12-11T16:12:04.640Z,1.40
2018-12-11T16:14:32.141Z,1.50
2018-12-11T16:16:59.722Z,1.73
2018-12-11T16:19:27.192Z,2.10
2018-12-11T16:21:55.643Z,1.57
2018-12-11T16:24:23.117Z,1.90
2018-12-11T16:26:50.599Z,1.60
2018-12-11T16:29:18.059Z,1.77
2018-12-11T16:31:45.557Z,1.90
2018-12-11T16:34:13.019Z,1.97
2018-12-11T16:36:40.495Z,1.90
2018-12-11T16:39:08.002Z,1.80
2018-12-11T16:41:35.530Z,1.67
2018-12-11T16:44:03.198Z,2.00
2018-12-11T16:46:30.743Z,2.57
2018-12-11T16:48:58.219Z,2.20
2018-12-11T16:51:25.707Z,2.00
2018-12-11T16:53:53.210Z,2.07
2018-12-11T16:56:20.700Z,2.30
2018-12-11T16:58:48.178Z,2.20
2018-12-11T17:01:15.678Z,2.50
2018-12-11T17:03:43.139Z,2.23
2018-12-11T17:06:10.621Z,2.07
2018-12-11T17:08:38.161Z,2.20
2018-12-11T17:11:05.644Z,2.43
2018-12-11T17:13:33.122Z,2.20
2018-12-11T17:16:00.599Z,2.33
2018-12-11T17:18:28.075Z,2.40
2018-12-11T17:20:56.058Z,2.20
2018-12-11T17:23:23.591Z,2.50
2018-12-11T17:25:51.057Z,2.00
2018-12-11T17:28:18.539Z,2.03
2018-12-11T17:30:46.022Z,2.13
2018-12-11T17:33:13.505Z,1.97
2018-12-11T17:35:40.997Z,2.10
2018-12-11T17:38:08.597Z,2.10
2018-12-11T17:40:36.099Z,2.53
2018-12-11T17:43:03.630Z,2.00
2018-12-11T17:45:31.102Z,2.07
2018-12-11T17:47:58.594Z,1.80
2018-12-11T17:50:26.075Z,2.20
2018-12-11T17:52:53.542Z,1.70
2018-12-11T17:55:21.059Z,1.70
2018-12-11T17:57:48.630Z,2.00
2018-12-11T18:00:16.090Z,2.07
2018-12-11T18:02:43.622Z,2.23
2018-12-11T18:05:11.086Z,2.03
2018-12-11T18:07:38.888Z,2.00
2018-12-11T18:10:06.527Z,2.13
2018-12-11T18:12:33.998Z,2.80
2018-12-11T18:15:01.476Z,2.00
2018-12-11T18:17:28.978Z,2.30
2018-12-11T18:19:57.413Z,2.73
2018-12-11T18:22:24.917Z,2.70
2018-12-11T18:24:52.394Z,2.27
2018-12-11T18:27:19.946Z,2.50
2018-12-11T18:29:47.437Z,2.47
2018-12-11T18:32:14.978Z,2.67
2018-12-11T18:34:43.925Z,2.83
2018-12-11T18:37:11.618Z,3.37
2018-12-11T18:39:39.112Z,2.90
2018-12-11T18:42:06.586Z,2.83
2018-12-11T18:44:34.081Z,3.70
2018-12-11T18:47:01.573Z,3.10
2018-12-11T18:49:29.050Z,3.50
2018-12-11T18:51:56.540Z,2.73
2018-12-11T18:54:24.016Z,2.73
2018-12-11T18:56:51.506Z,3.13
2018-12-11T18:59:18.988Z,2.90
2018-12-11T19:01:46.475Z,3.00
2018-12-11T19:04:13.979Z,2.93
2018-12-11T19:06:41.452Z,2.97
2018-12-11T19:09:08.946Z,3.03
2018-12-11T19:11:36.426Z,2.70
2018-12-11T19:14:03.921Z,4.77
2018-12-11T19:16:31.409Z,2.60
2018-12-11T19:18:58.886Z,2.93
2018-12-11T19:21:26.381Z,2.83
2018-12-11T19:23:53.907Z,2.83
2018-12-11T19:26:21.852Z,2.77
2018-12-11T19:28:49.325Z,2.63
2018-12-11T19:31:16.784Z,2.73
2018-12-11T19:33:44.275Z,2.87
2018-12-11T19:36:11.762Z,2.70
2018-12-11T19:38:39.276Z,2.83
2018-12-11T19:41:06.784Z,2.80
2018-12-11T19:43:34.255Z,2.83
2018-12-11T19:46:01.742Z,2.73
2018-12-11T19:48:29.325Z,2.93
2018-12-11T19:50:56.818Z,2.50
2018-12-11T19:53:24.288Z,2.87
2018-12-11T19:55:51.798Z,3.20
2018-12-11T19:58:19.276Z,3.63
2018-12-11T20:00:46.825Z,3.70
2018-12-11T20:03:14.307Z,3.30
2018-12-11T20:05:41.805Z,3.03
2018-12-11T20:08:09.280Z,3.30
2018-12-11T20:10:36.780Z,3.80
2018-12-11T20:13:04.287Z,3.60
2018-12-11T20:15:31.789Z,3.33
2018-12-11T20:17:59.429Z,3.10
2018-12-11T20:20:26.975Z,3.70
2018-12-11T20:22:54.675Z,3.27
2018-12-11T20:25:22.162Z,3.23
2018-12-11T20:27:49.643Z,3.30
2018-12-11T20:30:17.199Z,3.53
2018-12-11T20:32:44.698Z,3.87
2018-12-11T20:35:12.171Z,4.27
2018-12-11T20:37:39.685Z,4.17
2018-12-11T20:40:07.818Z,4.57
2018-12-11T20:42:35.341Z,4.30
2018-12-11T20:45:03.105Z,4.33
2018-12-11T20:47:30.754Z,4.13
2018-12-11T20:49:58.259Z,4.43
2018-12-11T20:52:25.719Z,4.47
2018-12-11T20:54:53.194Z,5.40
2018-12-11T20:57:20.701Z,12.03
2018-12-11T20:59:48.170Z,4.80
2018-12-11T21:02:15.657Z,4.90
2018-12-11T21:04:43.128Z,4.50
2018-12-11T21:07:10.726Z,6.07
2018-12-11T21:09:39.867Z,5.40
2018-12-11T21:12:07.898Z,5.23
2018-12-11T21:14:35.406Z,4.77
2018-12-11T21:17:02.946Z,5.10
2018-12-11T21:19:30.491Z,4.70
2018-12-11T21:21:57.965Z,5.03
2018-12-11T21:24:25.923Z,4.93
2018-12-11T21:26:53.906Z,5.00
2018-12-11T21:29:21.465Z,5.00
2018-12-11T21:31:48.941Z,5.23
2018-12-11T21:34:16.405Z,5.07
2018-12-11T21:36:43.979Z,5.27
2018-12-11T21:39:11.477Z,5.50
2018-12-11T21:41:39.843Z,5.10
2018-12-11T21:44:07.310Z,5.60
2018-12-11T21:46:34.825Z,5.47
2018-12-11T21:49:02.386Z,5.50
2018-12-11T21:51:29.864Z,5.40
2018-12-11T21:53:57.354Z,5.30
2018-12-11T21:56:24.826Z,5.03
2018-12-11T21:58:52.290Z,5.83
2018-12-11T22:01:20.663Z,5.60
2018-12-11T22:03:48.124Z,6.20
2018-12-11T22:06:15.663Z,5.53
2018-12-11T22:08:43.176Z,6.33
2018-12-11T22:11:10.658Z,5.67
2018-12-11T22:13:38.137Z,5.93
2018-12-11T22:16:05.625Z,6.03
2018-12-11T22:18:33.081Z,6.77
2018-12-11T22:21:00.580Z,5.80
2018-12-11T22:23:29.224Z,5.77
2018-12-11T22:25:56.950Z,5.80
2018-12-11T22:28:24.505Z,6.13
2018-12-11T22:30:51.993Z,5.83
2018-12-11T22:33:19.450Z,5.77
2018-12-11T22:35:47.081Z,6.63
2018-12-11T22:38:14.563Z,5.90
2018-12-11T22:40:42.037Z,6.33
2018-12-11T22:43:09.531Z,6.27
2018-12-11T22:45:37.020Z,6.93
2018-12-11T22:48:04.553Z,6.13
2018-12-11T22:50:32.037Z,6.37
2018-12-11T22:52:59.529Z,6.20
2018-12-11T22:55:27.015Z,7.07
2018-12-11T22:57:54.569Z,5.93
2018-12-11T23:00:22.137Z,6.80
2018-12-11T23:02:49.627Z,7.30
2018-12-11T23:05:17.117Z,6.13
2018-12-11T23:07:44.641Z,7.10
2018-12-11T23:10:13.751Z,6.90
2018-12-11T23:12:41.237Z,6.47
2018-12-11T23:15:08.756Z,5.83
2018-12-11T23:17:36.248Z,5.50
2018-12-11T23:20:04.536Z,5.93
2018-12-11T23:22:32.015Z,6.33
2018-12-11T23:24:59.662Z,6.93
2018-12-11T23:27:28.067Z,6.20
2018-12-11T23:29:55.548Z,5.97
2018-12-11T23:32:23.017Z,6.07
2018-12-11T23:34:52.149Z,6.37
2018-12-11T23:37:19.629Z,6.57
2018-12-11T23:39:47.106Z,6.07
2018-12-11T23:42:14.587Z,6.43
2018-12-11T23:44:42.070Z,6.33
2018-12-11T23:47:09.532Z,6.57
2018-12-11T23:49:37.034Z,5.97
2018-12-11T23:52:04.514Z,6.77
2018-12-11T23:54:32.760Z,6.03
2018-12-11T23:57:00.303Z,6.47
2018-12-11T23:59:29.314Z,7.00
